Pagrindinis puslapis
METAR-TAF:

METAR-TAF

Oro uostai :

Medeljinas, Kolumbija

platuma: 06-13N, ilguma: 075-36W, Aukštis: 1490 m

Dabartinis oras

Ataskaita buvo paskelbta 5 valandos ir 49 minutes, ne 23:00 UTC
Vėjas 5 kt iš Šiaurės Rytų
Temperatūra 19°C
Drėgmė 88%
Slėgis 1018 hPa
Matomumas: 8000 m
Išsisklaidę debesys ne aukštis 1500 ft
Su prošvaistėmis ne aukštis 7000 ft
dulksna

METAR: SKMD 122300Z 04005KT 9999 8000N -DZ SCT015 BKN070 19/17 A3005

Laikas: 23:49 (04:49 UTC)


TAF: trūkstamas

Orai ataskaitas ir orų prognozės (METAR, TAF).

turimą stotys yra geltonos ir raudonos taškus žemėlapyje.

Perkelti pele per norėdami pamatyti stoties vardą.

Tada spustelėkite, norėdami matyti oro stebėjimo ir prognozės.

Norėdami pakeisti žemėlapį: spustelėkite ant žalios mygtukų su juodo kryžiaus žemyn,; žalią mygtuką su brūkšneliu, jei norite nutolinti; arba žalių rodyklių gretimoms žemėlapius.


METAR-TAF: